createdAt,value
2022-10-31T00:01:48.208Z,22.50
2022-10-31T00:04:18.346Z,19.98
2022-10-31T00:06:48.384Z,16.30
2022-10-31T00:09:18.117Z,15.27
2022-10-31T00:11:47.977Z,14.13
2022-10-31T00:14:17.409Z,19.82
2022-10-31T00:16:47.181Z,17.30
2022-10-31T00:19:16.978Z,17.50
2022-10-31T00:21:46.701Z,15.97
2022-10-31T00:24:16.847Z,14.86
2022-10-31T00:26:46.565Z,14.83
2022-10-31T00:29:16.263Z,19.90
2022-10-31T00:31:45.750Z,18.10
2022-10-31T00:34:15.448Z,16.13
2022-10-31T00:36:45.216Z,20.97
2022-10-31T00:39:16.023Z,19.13
2022-10-31T00:41:45.785Z,23.57
2022-10-31T00:44:16.600Z,18.35
2022-10-31T00:46:46.364Z,17.93
2022-10-31T00:49:16.514Z,18.73
2022-10-31T00:51:46.272Z,19.40
2022-10-31T00:54:16.335Z,24.12
2022-10-31T00:56:46.359Z,20.70
2022-10-31T00:59:16.479Z,21.27
2022-10-31T01:01:46.398Z,18.40
2022-10-31T01:04:16.599Z,21.02
2022-10-31T01:06:46.362Z,20.17
2022-10-31T01:09:16.448Z,21.10
2022-10-31T01:11:46.250Z,16.67
2022-10-31T01:14:16.359Z,17.52
2022-10-31T01:16:46.094Z,21.13
2022-10-31T01:19:17.117Z,18.95
2022-10-31T01:21:46.862Z,18.90
2022-10-31T01:24:16.921Z,20.52
2022-10-31T01:26:47.182Z,21.03
2022-10-31T01:29:17.293Z,19.50
2022-10-31T01:31:46.794Z,19.75
2022-10-31T01:34:19.040Z,20.32
2022-10-31T01:36:50.790Z,18.77
2022-10-31T01:39:21.175Z,21.07
2022-10-31T01:41:53.651Z,20.47
2022-10-31T01:44:27.386Z,17.02
2022-10-31T01:47:08.576Z,23.20
2022-10-31T01:49:41.686Z,19.12
2022-10-31T01:52:33.708Z,20.37
2022-10-31T01:55:06.838Z,19.35
2022-10-31T01:57:39.622Z,19.73
2022-10-31T02:00:13.164Z,21.23
2022-10-31T02:02:43.815Z,29.18
2022-10-31T02:05:16.673Z,18.40
2022-10-31T02:08:10.633Z,24.32
2022-10-31T02:10:41.663Z,21.00
2022-10-31T02:13:13.866Z,21.00
2022-10-31T02:15:48.547Z,22.73
2022-10-31T02:18:20.723Z,22.30
2022-10-31T02:21:14.811Z,21.47
2022-10-31T02:24:08.450Z,23.67
2022-10-31T02:26:47.382Z,29.73
2022-10-31T02:29:39.397Z,24.93
2022-10-31T02:32:21.062Z,23.53
2022-10-31T02:35:00.164Z,28.83
2022-10-31T02:40:35.817Z,31.23
2022-10-31T02:43:15.722Z,29.73
2022-10-31T02:45:54.125Z,28.00
2022-10-31T02:48:27.485Z,24.05
2022-10-31T02:51:02.849Z,26.60
2022-10-31T02:53:39.534Z,27.83
2022-10-31T02:56:19.077Z,29.77
2022-10-31T02:58:57.791Z,26.80
2022-10-31T03:01:57.668Z,28.07
2022-10-31T03:04:49.739Z,25.75
2022-10-31T03:07:28.361Z,24.43
2022-10-31T03:10:14.994Z,29.95
2022-10-31T03:13:09.004Z,31.37
2022-10-31T03:15:49.714Z,31.12
2022-10-31T03:18:25.221Z,34.23
2022-10-31T03:21:11.317Z,31.73
2022-10-31T03:23:43.539Z,34.63
2022-10-31T03:26:18.166Z,31.60
2022-10-31T03:28:50.990Z,35.30
2022-10-31T03:31:24.371Z,37.77
2022-10-31T03:33:56.400Z,37.20
2022-10-31T03:36:27.747Z,31.80
2022-10-31T03:39:01.152Z,34.50
2022-10-31T03:41:33.950Z,36.10
2022-10-31T03:44:07.071Z,34.03
2022-10-31T03:46:37.108Z,39.40
2022-10-31T03:49:07.471Z,35.00
2022-10-31T03:51:42.689Z,34.30
2022-10-31T03:54:19.567Z,36.63
2022-10-31T03:56:57.619Z,41.70
2022-10-31T03:59:30.472Z,37.10
2022-10-31T04:02:03.397Z,44.10
2022-10-31T04:04:34.369Z,38.93
2022-10-31T04:07:06.951Z,34.87
2022-10-31T04:09:40.312Z,39.83
2022-10-31T04:12:14.629Z,37.95
2022-10-31T04:14:48.541Z,40.60
2022-10-31T04:17:22.206Z,35.67
2022-10-31T04:19:52.889Z,41.13
2022-10-31T04:22:22.821Z,40.43
2022-10-31T04:24:52.574Z,37.93
2022-10-31T04:27:22.600Z,41.07
2022-10-31T04:29:52.107Z,39.70
2022-10-31T04:32:21.853Z,34.60
2022-10-31T04:34:51.588Z,35.43
2022-10-31T04:37:21.344Z,39.23
2022-10-31T04:39:51.091Z,49.20
2022-10-31T04:42:40.299Z,41.00
2022-10-31T04:45:10.052Z,47.97
2022-10-31T04:47:39.969Z,48.33
2022-10-31T04:50:09.893Z,42.53
2022-10-31T04:52:43.920Z,37.93
2022-10-31T04:55:15.602Z,37.08
2022-10-31T04:58:03.441Z,40.50
2022-10-31T05:00:34.969Z,41.60
2022-10-31T05:03:04.779Z,40.67
2022-10-31T05:05:35.379Z,42.93
2022-10-31T05:08:05.866Z,41.87
2022-10-31T05:10:35.698Z,39.10
2022-10-31T05:13:06.702Z,42.80
2022-10-31T05:15:54.151Z,38.53
2022-10-31T05:18:34.417Z,36.50
2022-10-31T05:21:21.665Z,38.27
2022-10-31T05:23:55.803Z,37.97
2022-10-31T05:26:26.529Z,40.87
2022-10-31T05:28:56.676Z,39.50
2022-10-31T05:31:26.482Z,42.10
2022-10-31T05:33:56.319Z,38.53
2022-10-31T05:36:45.223Z,36.80
2022-10-31T05:39:16.985Z,35.03
2022-10-31T05:41:48.439Z,34.90
2022-10-31T05:44:19.919Z,35.92
2022-10-31T05:47:03.127Z,38.43
2022-10-31T05:49:50.835Z,35.30
2022-10-31T05:52:38.299Z,37.63
2022-10-31T05:55:09.906Z,39.47
2022-10-31T05:57:40.230Z,38.90
2022-10-31T06:00:12.034Z,39.75
2022-10-31T06:02:43.504Z,39.53
2022-10-31T06:05:26.839Z,40.50
2022-10-31T06:07:58.184Z,40.33
2022-10-31T06:10:28.879Z,41.33
2022-10-31T06:12:59.404Z,42.53
2022-10-31T06:15:43.913Z,40.33
2022-10-31T06:18:14.493Z,36.58
2022-10-31T06:20:48.802Z,41.33
2022-10-31T06:23:18.641Z,36.07
2022-10-31T06:25:53.064Z,38.47
2022-10-31T06:28:22.941Z,38.63
2022-10-31T06:30:54.443Z,37.50
2022-10-31T06:33:24.278Z,35.57
2022-10-31T06:35:55.829Z,41.30
2022-10-31T06:38:27.617Z,34.23
2022-10-31T06:40:57.696Z,31.85
2022-10-31T06:43:30.701Z,31.85
2022-10-31T06:46:08.224Z,35.43
2022-10-31T06:48:39.656Z,28.87
2022-10-31T06:51:23.247Z,29.67
2022-10-31T06:53:53.291Z,31.10
2022-10-31T06:56:24.568Z,31.00
2022-10-31T06:58:55.352Z,32.73
2022-10-31T07:01:27.065Z,36.43
2022-10-31T07:03:56.948Z,36.93
2022-10-31T07:06:26.715Z,33.07
2022-10-31T07:08:56.638Z,34.43
2022-10-31T07:11:27.919Z,34.30
2022-10-31T07:13:58.829Z,35.60
2022-10-31T07:16:28.626Z,32.75
2022-10-31T07:18:58.435Z,43.87
2022-10-31T07:21:28.289Z,40.63
2022-10-31T07:23:58.380Z,38.87
2022-10-31T07:26:48.486Z,32.00
2022-10-31T07:29:18.403Z,30.97
2022-10-31T07:31:49.160Z,32.03
2022-10-31T07:34:20.603Z,40.00
2022-10-31T07:39:36.347Z,42.67
2022-10-31T07:42:06.683Z,41.90
2022-10-31T07:44:36.589Z,39.90
2022-10-31T07:47:08.333Z,49.08
2022-10-31T07:49:55.833Z,51.63
2022-10-31T07:52:43.658Z,41.83
2022-10-31T07:55:15.941Z,52.67
2022-10-31T07:57:47.484Z,54.90
2022-10-31T08:00:18.742Z,50.64
2022-10-31T08:02:50.198Z,54.90
2022-10-31T08:05:37.906Z,53.27
2022-10-31T08:08:21.692Z,50.03
2022-10-31T08:10:51.575Z,58.70
2022-10-31T08:13:21.395Z,62.23
2022-10-31T08:15:54.602Z,59.73
2022-10-31T08:18:26.319Z,54.42
2022-10-31T08:20:56.353Z,55.07
2022-10-31T08:23:26.161Z,61.07
2022-10-31T08:25:56.617Z,59.63
2022-10-31T08:28:26.360Z,56.48
2022-10-31T08:30:56.467Z,61.03
2022-10-31T08:33:46.393Z,65.72
2022-10-31T08:36:23.501Z,54.37
2022-10-31T08:39:01.851Z,64.00
2022-10-31T08:41:30.403Z,63.80
2022-10-31T08:44:00.947Z,59.03
2022-10-31T08:46:30.754Z,63.43
2022-10-31T08:49:00.967Z,60.57
2022-10-31T08:51:30.956Z,53.00
2022-10-31T08:54:00.710Z,50.97
2022-10-31T08:56:37.693Z,47.93
2022-10-31T08:59:09.156Z,42.77
2022-10-31T09:01:40.793Z,40.67
2022-10-31T09:04:11.668Z,39.80
2022-10-31T09:06:50.451Z,35.70
2022-10-31T09:09:13.125Z,39.53
2022-10-31T09:11:43.342Z,33.60
2022-10-31T09:14:14.541Z,29.60
2022-10-31T09:16:55.213Z,25.52
2022-10-31T09:19:26.631Z,28.27
2022-10-31T09:21:56.770Z,29.80
2022-10-31T09:24:26.590Z,27.73
2022-10-31T09:26:56.338Z,24.47
2022-10-31T09:29:31.949Z,43.70
2022-10-31T09:32:02.741Z,36.57
2022-10-31T09:34:34.362Z,47.47
2022-10-31T09:37:11.549Z,36.83
2022-10-31T09:39:42.258Z,38.17
2022-10-31T09:42:25.794Z,40.05
2022-10-31T09:45:16.296Z,39.17
2022-10-31T09:48:00.909Z,38.67
2022-10-31T09:50:43.040Z,44.23
2022-10-31T09:53:29.041Z,37.93
2022-10-31T09:55:59.519Z,35.27
2022-10-31T09:58:34.084Z,37.10
2022-10-31T10:01:05.541Z,41.73
2022-10-31T10:03:46.900Z,41.87
2022-10-31T10:06:29.691Z,40.73
2022-10-31T10:09:17.421Z,38.13
2022-10-31T10:12:24.069Z,49.67
2022-10-31T10:15:18.109Z,46.33
2022-10-31T10:18:01.327Z,45.60
2022-10-31T10:20:59.087Z,41.50
2022-10-31T10:23:48.914Z,39.97
2022-10-31T10:26:21.784Z,37.44
2022-10-31T10:29:06.225Z,37.80
2022-10-31T10:31:39.039Z,42.90
2022-10-31T10:34:11.862Z,42.60
2022-10-31T10:36:47.790Z,44.10
2022-10-31T10:39:38.576Z,40.25
2022-10-31T10:42:34.067Z,38.28
2022-10-31T10:45:30.168Z,45.97
2022-10-31T10:48:17.377Z,46.70
2022-10-31T10:50:54.286Z,42.27
2022-10-31T10:53:38.410Z,40.33
2022-10-31T10:56:19.961Z,41.35
2022-10-31T10:58:50.445Z,38.30
2022-10-31T11:01:20.255Z,41.33
2022-10-31T11:03:50.987Z,48.23
2022-10-31T11:06:27.584Z,44.08
2022-10-31T11:08:57.102Z,41.75
2022-10-31T11:11:32.727Z,42.17
2022-10-31T11:14:08.595Z,42.85
2022-10-31T11:16:41.822Z,53.97
2022-10-31T11:19:17.445Z,47.25
2022-10-31T11:21:53.706Z,53.70
2022-10-31T11:24:21.541Z,43.87
2022-10-31T11:26:52.781Z,45.80
2022-10-31T11:29:27.376Z,43.57
2022-10-31T11:32:02.118Z,44.57
2022-10-31T11:34:37.024Z,44.45
2022-10-31T11:37:12.546Z,44.03
2022-10-31T11:39:45.446Z,41.93
2022-10-31T11:42:15.749Z,50.68
2022-10-31T11:44:46.316Z,45.53
2022-10-31T11:47:21.743Z,43.43
2022-10-31T11:49:51.712Z,42.53
2022-10-31T11:52:27.371Z,42.25
2022-10-31T11:55:32.957Z,45.60
2022-10-31T11:58:03.279Z,41.40
2022-10-31T12:00:35.886Z,43.90
2022-10-31T12:03:41.495Z,42.13
2022-10-31T12:06:26.225Z,45.88
2022-10-31T12:08:56.037Z,34.67
2022-10-31T12:11:28.841Z,40.10
2022-10-31T12:14:07.270Z,36.73
2022-10-31T12:16:45.757Z,40.13
2022-10-31T12:19:37.398Z,36.67
2022-10-31T12:22:14.170Z,40.30
2022-10-31T12:25:06.221Z,42.30
2022-10-31T12:27:50.622Z,39.50
2022-10-31T12:30:32.054Z,28.60
2022-10-31T12:33:21.363Z,31.90
2022-10-31T12:35:59.712Z,39.07
2022-10-31T12:38:41.424Z,33.65
2022-10-31T12:41:17.222Z,27.45
2022-10-31T12:43:52.542Z,35.37
2022-10-31T12:46:59.542Z,38.00
2022-10-31T12:49:40.325Z,31.70
2022-10-31T12:52:47.293Z,31.35
2022-10-31T12:55:42.259Z,29.47
2022-10-31T12:58:27.211Z,34.83
2022-10-31T13:01:00.157Z,31.87
2022-10-31T13:03:38.874Z,25.07
2022-10-31T13:06:12.719Z,29.63
2022-10-31T13:08:45.507Z,26.37
2022-10-31T13:11:19.260Z,31.73
2022-10-31T13:13:58.006Z,27.20
2022-10-31T13:16:33.519Z,21.80
2022-10-31T13:19:14.683Z,25.47
2022-10-31T13:21:56.358Z,28.40
2022-10-31T13:24:45.642Z,23.95
2022-10-31T13:27:24.259Z,23.50
2022-10-31T13:30:15.060Z,20.53
2022-10-31T13:32:47.923Z,23.90
2022-10-31T13:35:45.909Z,26.50
2022-10-31T13:38:18.694Z,27.77
2022-10-31T13:41:00.477Z,28.50
2022-10-31T13:43:41.950Z,24.67
2022-10-31T13:46:36.471Z,28.80
2022-10-31T13:49:09.122Z,21.27
2022-10-31T13:51:39.275Z,26.47
2022-10-31T13:54:25.251Z,26.45
2022-10-31T13:56:55.690Z,24.57
2022-10-31T13:59:27.709Z,24.85
2022-10-31T14:02:01.176Z,31.12
2022-10-31T14:04:34.361Z,26.17
2022-10-31T14:07:22.104Z,23.70
2022-10-31T14:10:03.412Z,21.07
2022-10-31T14:12:41.413Z,25.40
2022-10-31T14:15:25.372Z,25.62
2022-10-31T14:18:02.786Z,25.75
2022-10-31T14:20:44.706Z,26.77
2022-10-31T14:23:17.054Z,28.13
2022-10-31T14:25:47.207Z,25.57
2022-10-31T14:28:25.617Z,28.12
2022-10-31T14:30:58.075Z,22.93
2022-10-31T14:33:30.353Z,27.93
2022-10-31T14:36:19.699Z,30.57
2022-10-31T14:39:00.747Z,26.73
2022-10-31T14:41:59.093Z,35.10
2022-10-31T14:44:49.684Z,28.32
2022-10-31T14:47:56.994Z,29.03
2022-10-31T14:50:44.685Z,28.95
2022-10-31T14:53:23.154Z,32.80
2022-10-31T14:55:56.484Z,35.33
2022-10-31T14:58:40.759Z,27.43
2022-10-31T15:01:12.328Z,30.67
2022-10-31T15:04:10.196Z,27.23
2022-10-31T15:06:21.489Z,32.00
2022-10-31T15:08:53.376Z,29.97
2022-10-31T15:11:26.345Z,35.50
2022-10-31T15:13:58.954Z,35.30
2022-10-31T15:19:07.817Z,34.93
2022-10-31T15:21:39.777Z,33.30
2022-10-31T15:24:15.411Z,29.48
2022-10-31T15:26:48.529Z,32.27
2022-10-31T15:29:22.561Z,34.10
2022-10-31T15:31:57.090Z,36.13
2022-10-31T15:34:44.185Z,34.43
2022-10-31T15:37:19.841Z,32.43
2022-10-31T15:39:51.151Z,44.53
2022-10-31T15:42:26.201Z,33.90
2022-10-31T15:45:04.823Z,37.00
2022-10-31T15:47:35.455Z,40.57
2022-10-31T15:50:10.885Z,36.97
2022-10-31T15:52:48.288Z,36.77
2022-10-31T15:55:23.410Z,36.73
2022-10-31T15:57:56.309Z,42.00
2022-10-31T16:00:28.787Z,34.57
2022-10-31T16:03:07.195Z,44.10
2022-10-31T16:05:40.076Z,43.83
2022-10-31T16:08:33.400Z,42.32
2022-10-31T16:11:14.999Z,46.53
2022-10-31T16:13:56.511Z,36.20
2022-10-31T16:16:35.168Z,35.55
2022-10-31T16:19:00.646Z,38.57
2022-10-31T16:21:36.227Z,36.97
2022-10-31T16:24:22.015Z,36.17
2022-10-31T16:27:09.312Z,34.03
2022-10-31T16:29:44.578Z,31.10
2022-10-31T16:32:39.714Z,33.90
2022-10-31T16:35:15.769Z,46.00
2022-10-31T16:37:46.656Z,40.33
2022-10-31T16:40:17.275Z,31.92
2022-10-31T16:42:49.680Z,42.43
2022-10-31T16:45:27.337Z,36.47
2022-10-31T16:48:06.018Z,43.90
2022-10-31T16:50:35.789Z,43.85
2022-10-31T16:53:13.800Z,42.20
2022-10-31T16:55:38.773Z,34.80
2022-10-31T16:58:12.905Z,35.15
2022-10-31T17:00:42.857Z,35.30
2022-10-31T17:03:13.134Z,40.53
2022-10-31T17:05:42.879Z,33.87
2022-10-31T17:08:12.683Z,34.70
2022-10-31T17:10:44.505Z,37.50
2022-10-31T17:13:17.707Z,35.37
2022-10-31T17:15:51.054Z,29.72
2022-10-31T17:18:26.896Z,29.37
2022-10-31T17:20:55.731Z,28.73
2022-10-31T17:23:25.666Z,32.60
2022-10-31T17:25:55.855Z,26.07
2022-10-31T17:28:26.698Z,32.23
2022-10-31T17:30:59.009Z,33.23
2022-10-31T17:33:28.676Z,28.20
2022-10-31T17:35:58.449Z,29.87
2022-10-31T17:38:28.199Z,28.33
2022-10-31T17:40:57.962Z,24.53
2022-10-31T17:43:27.802Z,21.50
2022-10-31T17:46:00.664Z,28.03
2022-10-31T17:48:30.857Z,22.63
2022-10-31T17:51:07.487Z,21.37
2022-10-31T17:53:36.954Z,18.62
2022-10-31T17:56:09.529Z,22.00
2022-10-31T17:58:39.774Z,17.27
2022-10-31T18:01:12.111Z,19.40
2022-10-31T18:03:42.260Z,22.77
2022-10-31T18:06:14.601Z,22.15
2022-10-31T18:08:44.849Z,17.13
2022-10-31T18:11:20.281Z,22.27
2022-10-31T18:13:51.533Z,18.93
2022-10-31T18:16:21.482Z,24.72
2022-10-31T18:18:53.822Z,15.90
2022-10-31T18:21:23.653Z,19.57
2022-10-31T18:23:57.253Z,23.03
2022-10-31T18:26:28.231Z,17.25
2022-10-31T18:28:58.318Z,21.20
2022-10-31T18:31:28.511Z,21.70
2022-10-31T18:33:58.704Z,19.80
2022-10-31T18:36:28.201Z,18.02
2022-10-31T18:38:58.043Z,18.40
2022-10-31T18:41:27.778Z,20.37
2022-10-31T18:44:00.125Z,16.83
2022-10-31T18:46:29.911Z,18.30
2022-10-31T18:49:00.487Z,17.50
2022-10-31T18:51:30.604Z,23.70
2022-10-31T18:54:02.077Z,15.57
2022-10-31T18:56:32.179Z,22.03
2022-10-31T18:59:03.168Z,17.30
2022-10-31T19:01:33.259Z,16.43
2022-10-31T19:04:03.169Z,16.53
2022-10-31T19:06:33.070Z,18.10
2022-10-31T19:09:05.682Z,16.20
2022-10-31T19:11:36.444Z,18.93
2022-10-31T19:14:12.553Z,17.42
2022-10-31T19:16:42.570Z,16.60
2022-10-31T19:19:12.351Z,14.63
2022-10-31T19:21:42.151Z,23.23
2022-10-31T19:24:11.834Z,11.00
2022-10-31T19:26:41.572Z,15.83
2022-10-31T19:29:11.647Z,16.07
2022-10-31T19:31:41.485Z,13.97
2022-10-31T19:34:12.400Z,13.38
2022-10-31T19:36:42.845Z,11.67
2022-10-31T19:39:13.383Z,15.40
2022-10-31T19:41:43.136Z,12.17
2022-10-31T19:44:15.093Z,13.30
2022-10-31T19:46:53.250Z,12.40
2022-10-31T19:49:16.698Z,16.37
2022-10-31T19:51:46.437Z,14.63
2022-10-31T19:54:16.024Z,14.10
2022-10-31T19:56:45.595Z,10.90
2022-10-31T19:59:15.401Z,12.93
2022-10-31T20:01:45.290Z,16.87
2022-10-31T20:04:14.993Z,22.73
2022-10-31T20:06:44.790Z,13.30
2022-10-31T20:09:15.294Z,12.90
2022-10-31T20:11:46.058Z,14.00
2022-10-31T20:14:17.654Z,15.43
2022-10-31T20:16:47.814Z,17.00
2022-10-31T20:19:17.315Z,11.40
2022-10-31T20:21:47.510Z,16.10
2022-10-31T20:24:17.257Z,12.00
2022-10-31T20:26:47.473Z,14.87
2022-10-31T20:29:17.248Z,14.77
2022-10-31T20:31:48.130Z,13.63
2022-10-31T20:34:17.850Z,18.85
2022-10-31T20:36:48.251Z,13.07
2022-10-31T20:39:18.055Z,13.53
2022-10-31T20:41:48.627Z,16.27
2022-10-31T20:44:18.356Z,21.70
2022-10-31T20:46:48.122Z,13.27
2022-10-31T20:49:17.878Z,16.37
2022-10-31T20:51:47.927Z,11.00
2022-10-31T20:54:18.955Z,14.07
2022-10-31T20:56:49.199Z,12.03
2022-10-31T20:59:19.795Z,13.23
2022-10-31T21:01:49.759Z,12.67
2022-10-31T21:04:19.686Z,12.10
2022-10-31T21:06:49.903Z,13.05
2022-10-31T21:09:19.711Z,10.30
2022-10-31T21:11:49.485Z,15.90
2022-10-31T21:14:19.126Z,17.00
2022-10-31T21:16:48.868Z,13.80
2022-10-31T21:19:18.617Z,10.50
2022-10-31T21:21:48.349Z,16.17
2022-10-31T21:24:20.746Z,12.58
2022-10-31T21:26:53.083Z,15.55
2022-10-31T21:29:23.047Z,12.57
2022-10-31T21:31:52.741Z,17.37
2022-10-31T21:34:22.272Z,17.07
2022-10-31T21:36:52.044Z,16.60
2022-10-31T21:39:21.868Z,11.87
2022-10-31T21:41:51.696Z,13.07
2022-10-31T21:44:21.472Z,20.40
2022-10-31T21:46:51.224Z,14.27
2022-10-31T21:49:21.052Z,21.23
2022-10-31T21:51:50.775Z,14.17
2022-10-31T21:54:29.991Z,15.07
2022-10-31T21:57:00.734Z,12.63
2022-10-31T21:59:31.210Z,14.70
2022-10-31T22:02:01.425Z,21.40
2022-10-31T22:04:31.669Z,12.28
2022-10-31T22:07:01.418Z,15.30
2022-10-31T22:09:31.165Z,11.53
2022-10-31T22:12:03.007Z,15.68
2022-10-31T22:14:33.042Z,18.25
2022-10-31T22:17:02.813Z,15.30
2022-10-31T22:19:32.278Z,13.25
2022-10-31T22:22:02.406Z,14.03
2022-10-31T22:24:32.150Z,10.10
2022-10-31T22:27:01.988Z,15.43
2022-10-31T22:29:31.736Z,8.70
2022-10-31T22:32:02.902Z,13.00
2022-10-31T22:34:32.613Z,9.73
2022-10-31T22:37:02.368Z,14.77
2022-10-31T22:39:32.129Z,11.07
2022-10-31T22:42:01.954Z,22.00
2022-10-31T22:44:31.695Z,8.10
2022-10-31T22:47:01.756Z,13.10
2022-10-31T22:49:31.579Z,29.07
2022-10-31T22:52:03.031Z,17.97
2022-10-31T22:54:33.076Z,13.35
2022-10-31T22:57:02.827Z,11.37
2022-10-31T22:59:32.566Z,13.73
2022-10-31T23:02:03.113Z,16.73
2022-10-31T23:04:34.014Z,12.93
2022-10-31T23:07:04.333Z,13.20
2022-10-31T23:09:34.374Z,15.27
2022-10-31T23:12:24.209Z,13.98
2022-10-31T23:14:53.935Z,14.47
2022-10-31T23:17:23.679Z,15.43
2022-10-31T23:19:53.722Z,14.63
2022-10-31T23:22:23.179Z,18.60
2022-10-31T23:24:52.980Z,13.53
2022-10-31T23:27:24.962Z,13.50
2022-10-31T23:29:57.179Z,14.47
2022-10-31T23:32:32.030Z,11.43
2022-10-31T23:35:05.050Z,11.90
2022-10-31T23:37:37.009Z,16.73
2022-10-31T23:40:08.950Z,13.97
2022-10-31T23:42:38.746Z,16.37
2022-10-31T23:45:09.057Z,14.13
2022-10-31T23:47:43.196Z,16.17
2022-10-31T23:50:11.324Z,16.30
2022-10-31T23:52:41.090Z,13.10
2022-10-31T23:55:11.702Z,18.98
2022-10-31T23:57:41.441Z,12.43
